sensor_id;sensor_type;location;lat;lon;timestamp;P1;durP1;ratioP1;P2;durP2;ratioP2
22665;SDS011;11499;49.486;11.104;2023-01-19T00:01:24;11.27;;;7.93;;
22665;SDS011;11499;49.486;11.104;2023-01-19T00:03:50;11.07;;;8.47;;
22665;SDS011;11499;49.486;11.104;2023-01-19T00:09:00;13.70;;;8.30;;
22665;SDS011;11499;49.486;11.104;2023-01-19T00:11:25;11.23;;;8.23;;
22665;SDS011;11499;49.486;11.104;2023-01-19T00:13:51;12.63;;;7.90;;
22665;SDS011;11499;49.486;11.104;2023-01-19T00:16:18;13.23;;;8.10;;
22665;SDS011;11499;49.486;11.104;2023-01-19T00:18:46;11.50;;;8.13;;
22665;SDS011;11499;49.486;11.104;2023-01-19T00:21:14;10.43;;;8.13;;
22665;SDS011;11499;49.486;11.104;2023-01-19T00:23:40;9.17;;;8.10;;
22665;SDS011;11499;49.486;11.104;2023-01-19T00:26:06;11.30;;;8.27;;
22665;SDS011;11499;49.486;11.104;2023-01-19T00:28:32;12.13;;;7.90;;
22665;SDS011;11499;49.486;11.104;2023-01-19T00:30:58;14.63;;;8.70;;
22665;SDS011;11499;49.486;11.104;2023-01-19T00:34:53;13.13;;;9.23;;
22665;SDS011;11499;49.486;11.104;2023-01-19T00:37:18;11.37;;;9.13;;
22665;SDS011;11499;49.486;11.104;2023-01-19T00:39:44;11.07;;;8.13;;
22665;SDS011;11499;49.486;11.104;2023-01-19T00:42:10;10.07;;;7.63;;
22665;SDS011;11499;49.486;11.104;2023-01-19T00:44:55;12.57;;;9.00;;
22665;SDS011;11499;49.486;11.104;2023-01-19T00:47:21;11.77;;;8.40;;
22665;SDS011;11499;49.486;11.104;2023-01-19T00:49:46;12.20;;;8.67;;
22665;SDS011;11499;49.486;11.104;2023-01-19T00:52:12;12.90;;;9.03;;
22665;SDS011;11499;49.486;11.104;2023-01-19T00:54:37;12.70;;;8.63;;
22665;SDS011;11499;49.486;11.104;2023-01-19T00:57:03;13.43;;;9.23;;
22665;SDS011;11499;49.486;11.104;2023-01-19T01:02:07;14.15;;;12.38;;
22665;SDS011;11499;49.486;11.104;2023-01-19T01:04:32;12.43;;;10.43;;
22665;SDS011;11499;49.486;11.104;2023-01-19T01:06:58;15.37;;;10.70;;
22665;SDS011;11499;49.486;11.104;2023-01-19T01:09:23;14.27;;;10.00;;
22665;SDS011;11499;49.486;11.104;2023-01-19T01:11:49;15.10;;;9.93;;
22665;SDS011;11499;49.486;11.104;2023-01-19T01:14:14;13.03;;;9.63;;
22665;SDS011;11499;49.486;11.104;2023-01-19T01:16:40;14.57;;;10.67;;
22665;SDS011;11499;49.486;11.104;2023-01-19T01:19:05;13.17;;;10.47;;
22665;SDS011;11499;49.486;11.104;2023-01-19T01:21:31;13.10;;;10.20;;
22665;SDS011;11499;49.486;11.104;2023-01-19T01:23:58;13.50;;;10.50;;
22665;SDS011;11499;49.486;11.104;2023-01-19T01:29:25;14.87;;;10.80;;
22665;SDS011;11499;49.486;11.104;2023-01-19T01:31:51;17.87;;;11.60;;
22665;SDS011;11499;49.486;11.104;2023-01-19T01:34:17;15.00;;;10.40;;
22665;SDS011;11499;49.486;11.104;2023-01-19T01:36:42;16.43;;;11.80;;
22665;SDS011;11499;49.486;11.104;2023-01-19T01:39:08;15.13;;;11.03;;
22665;SDS011;11499;49.486;11.104;2023-01-19T01:41:33;13.93;;;11.07;;
22665;SDS011;11499;49.486;11.104;2023-01-19T01:43:59;15.60;;;11.30;;
22665;SDS011;11499;49.486;11.104;2023-01-19T01:46:27;16.90;;;11.40;;
22665;SDS011;11499;49.486;11.104;2023-01-19T01:49:08;14.50;;;10.57;;
22665;SDS011;11499;49.486;11.104;2023-01-19T01:51:41;14.80;;;10.87;;
22665;SDS011;11499;49.486;11.104;2023-01-19T01:56:48;15.97;;;11.87;;
22665;SDS011;11499;49.486;11.104;2023-01-19T01:59:23;14.47;;;11.63;;
22665;SDS011;11499;49.486;11.104;2023-01-19T02:01:53;16.33;;;11.53;;
22665;SDS011;11499;49.486;11.104;2023-01-19T02:04:42;14.97;;;10.60;;
22665;SDS011;11499;49.486;11.104;2023-01-19T02:07:11;16.30;;;10.27;;
22665;SDS011;11499;49.486;11.104;2023-01-19T02:09:59;13.87;;;10.53;;
22665;SDS011;11499;49.486;11.104;2023-01-19T02:12:44;14.43;;;10.57;;
22665;SDS011;11499;49.486;11.104;2023-01-19T02:15:28;14.93;;;11.43;;
22665;SDS011;11499;49.486;11.104;2023-01-19T02:17:53;13.83;;;10.73;;
22665;SDS011;11499;49.486;11.104;2023-01-19T02:20:22;13.07;;;10.80;;
22665;SDS011;11499;49.486;11.104;2023-01-19T02:25:06;14.60;;;11.53;;
22665;SDS011;11499;49.486;11.104;2023-01-19T02:27:32;12.07;;;10.53;;
22665;SDS011;11499;49.486;11.104;2023-01-19T02:29:58;13.63;;;10.63;;
22665;SDS011;11499;49.486;11.104;2023-01-19T02:32:27;14.47;;;11.33;;
22665;SDS011;11499;49.486;11.104;2023-01-19T02:34:53;14.07;;;11.10;;
22665;SDS011;11499;49.486;11.104;2023-01-19T02:37:19;16.43;;;11.43;;
22665;SDS011;11499;49.486;11.104;2023-01-19T02:39:52;13.13;;;10.13;;
22665;SDS011;11499;49.486;11.104;2023-01-19T02:42:22;15.47;;;11.23;;
22665;SDS011;11499;49.486;11.104;2023-01-19T02:44:53;13.37;;;10.07;;
22665;SDS011;11499;49.486;11.104;2023-01-19T02:47:19;14.57;;;10.50;;
22665;SDS011;11499;49.486;11.104;2023-01-19T02:52:07;13.37;;;10.17;;
22665;SDS011;11499;49.486;11.104;2023-01-19T03:00:32;13.30;;;10.50;;
22665;SDS011;11499;49.486;11.104;2023-01-19T03:03:18;16.50;;;10.30;;
22665;SDS011;11499;49.486;11.104;2023-01-19T03:06:02;15.73;;;11.13;;
22665;SDS011;11499;49.486;11.104;2023-01-19T03:11:19;12.73;;;10.60;;
22665;SDS011;11499;49.486;11.104;2023-01-19T03:18:54;13.43;;;10.43;;
22665;SDS011;11499;49.486;11.104;2023-01-19T03:21:22;12.87;;;10.33;;
22665;SDS011;11499;49.486;11.104;2023-01-19T03:23:50;13.03;;;9.97;;
22665;SDS011;11499;49.486;11.104;2023-01-19T03:26:20;13.13;;;9.80;;
22665;SDS011;11499;49.486;11.104;2023-01-19T03:28:50;11.13;;;9.40;;
22665;SDS011;11499;49.486;11.104;2023-01-19T03:31:18;11.20;;;9.60;;
22665;SDS011;11499;49.486;11.104;2023-01-19T03:33:49;15.33;;;10.53;;
22665;SDS011;11499;49.486;11.104;2023-01-19T03:36:22;12.40;;;9.73;;
22665;SDS011;11499;49.486;11.104;2023-01-19T03:38:54;11.00;;;9.80;;
22665;SDS011;11499;49.486;11.104;2023-01-19T03:41:21;11.73;;;9.70;;
22665;SDS011;11499;49.486;11.104;2023-01-19T03:46:27;11.83;;;9.27;;
22665;SDS011;11499;49.486;11.104;2023-01-19T03:48:55;12.20;;;9.83;;
22665;SDS011;11499;49.486;11.104;2023-01-19T03:51:22;12.90;;;10.23;;
22665;SDS011;11499;49.486;11.104;2023-01-19T03:53:48;13.60;;;9.33;;
22665;SDS011;11499;49.486;11.104;2023-01-19T03:56:18;12.50;;;10.00;;
22665;SDS011;11499;49.486;11.104;2023-01-19T03:58:45;12.77;;;9.67;;
22665;SDS011;11499;49.486;11.104;2023-01-19T04:01:11;14.03;;;10.40;;
22665;SDS011;11499;49.486;11.104;2023-01-19T04:03:37;13.80;;;9.57;;
22665;SDS011;11499;49.486;11.104;2023-01-19T04:06:03;13.83;;;10.47;;
22665;SDS011;11499;49.486;11.104;2023-01-19T04:08:29;12.40;;;9.40;;
22665;SDS011;11499;49.486;11.104;2023-01-19T04:13:31;11.67;;;9.23;;
22665;SDS011;11499;49.486;11.104;2023-01-19T04:15:58;14.97;;;9.87;;
22665;SDS011;11499;49.486;11.104;2023-01-19T04:18:25;11.77;;;10.47;;
22665;SDS011;11499;49.486;11.104;2023-01-19T04:20:51;13.30;;;9.60;;
22665;SDS011;11499;49.486;11.104;2023-01-19T04:23:16;12.17;;;10.27;;
22665;SDS011;11499;49.486;11.104;2023-01-19T04:25:42;12.60;;;9.70;;
22665;SDS011;11499;49.486;11.104;2023-01-19T04:28:07;12.27;;;10.00;;
22665;SDS011;11499;49.486;11.104;2023-01-19T04:30:33;12.93;;;9.57;;
22665;SDS011;11499;49.486;11.104;2023-01-19T04:32:58;12.97;;;10.33;;
22665;SDS011;11499;49.486;11.104;2023-01-19T04:35:24;13.80;;;9.83;;
22665;SDS011;11499;49.486;11.104;2023-01-19T04:40:28;16.57;;;10.00;;
22665;SDS011;11499;49.486;11.104;2023-01-19T04:42:54;13.23;;;9.67;;
22665;SDS011;11499;49.486;11.104;2023-01-19T04:45:19;12.57;;;10.57;;
22665;SDS011;11499;49.486;11.104;2023-01-19T04:47:45;16.20;;;10.40;;
22665;SDS011;11499;49.486;11.104;2023-01-19T04:50:10;13.27;;;10.10;;
22665;SDS011;11499;49.486;11.104;2023-01-19T04:52:36;11.47;;;9.57;;
22665;SDS011;11499;49.486;11.104;2023-01-19T04:55:03;12.50;;;9.60;;
22665;SDS011;11499;49.486;11.104;2023-01-19T04:57:29;12.20;;;9.23;;
22665;SDS011;11499;49.486;11.104;2023-01-19T04:59:55;13.83;;;9.10;;
22665;SDS011;11499;49.486;11.104;2023-01-19T05:02:22;10.47;;;8.93;;
22665;SDS011;11499;49.486;11.104;2023-01-19T05:04:48;12.13;;;9.30;;
22665;SDS011;11499;49.486;11.104;2023-01-19T05:07:13;12.60;;;9.80;;
22665;SDS011;11499;49.486;11.104;2023-01-19T05:12:59;13.20;;;10.17;;
22665;SDS011;11499;49.486;11.104;2023-01-19T05:15:25;12.43;;;10.20;;
22665;SDS011;11499;49.486;11.104;2023-01-19T05:17:50;12.23;;;9.80;;
22665;SDS011;11499;49.486;11.104;2023-01-19T05:20:16;10.70;;;8.93;;
22665;SDS011;11499;49.486;11.104;2023-01-19T05:22:47;11.90;;;8.67;;
22665;SDS011;11499;49.486;11.104;2023-01-19T05:25:14;9.70;;;8.17;;
22665;SDS011;11499;49.486;11.104;2023-01-19T05:27:40;11.10;;;8.10;;
22665;SDS011;11499;49.486;11.104;2023-01-19T05:30:05;14.33;;;9.13;;
22665;SDS011;11499;49.486;11.104;2023-01-19T05:32:31;12.00;;;9.10;;
22665;SDS011;11499;49.486;11.104;2023-01-19T05:34:57;13.20;;;9.90;;
22665;SDS011;11499;49.486;11.104;2023-01-19T05:40:24;14.07;;;9.47;;
22665;SDS011;11499;49.486;11.104;2023-01-19T05:42:50;12.03;;;9.27;;
22665;SDS011;11499;49.486;11.104;2023-01-19T05:45:17;11.77;;;9.03;;
22665;SDS011;11499;49.486;11.104;2023-01-19T05:47:42;12.33;;;9.30;;
22665;SDS011;11499;49.486;11.104;2023-01-19T05:50:08;11.17;;;9.50;;
22665;SDS011;11499;49.486;11.104;2023-01-19T05:52:34;13.07;;;9.37;;
22665;SDS011;11499;49.486;11.104;2023-01-19T05:54:59;11.00;;;8.80;;
22665;SDS011;11499;49.486;11.104;2023-01-19T05:57:25;11.43;;;9.43;;
22665;SDS011;11499;49.486;11.104;2023-01-19T05:59:50;11.10;;;9.13;;
22665;SDS011;11499;49.486;11.104;2023-01-19T06:02:16;11.83;;;9.30;;
22665;SDS011;11499;49.486;11.104;2023-01-19T06:07:24;11.50;;;9.20;;
22665;SDS011;11499;49.486;11.104;2023-01-19T06:09:50;13.43;;;9.10;;
22665;SDS011;11499;49.486;11.104;2023-01-19T06:12:15;12.00;;;9.30;;
22665;SDS011;11499;49.486;11.104;2023-01-19T06:14:41;11.87;;;9.30;;
22665;SDS011;11499;49.486;11.104;2023-01-19T06:17:06;14.37;;;9.33;;
22665;SDS011;11499;49.486;11.104;2023-01-19T06:19:32;13.13;;;9.20;;
22665;SDS011;11499;49.486;11.104;2023-01-19T06:21:58;10.47;;;8.93;;
22665;SDS011;11499;49.486;11.104;2023-01-19T06:24:24;14.20;;;10.70;;
22665;SDS011;11499;49.486;11.104;2023-01-19T06:26:50;14.97;;;9.87;;
22665;SDS011;11499;49.486;11.104;2023-01-19T06:29:15;11.93;;;9.40;;
22665;SDS011;11499;49.486;11.104;2023-01-19T06:31:41;10.53;;;9.43;;
22665;SDS011;11499;49.486;11.104;2023-01-19T06:34:07;12.63;;;10.77;;
22665;SDS011;11499;49.486;11.104;2023-01-19T06:39:25;15.67;;;10.90;;
22665;SDS011;11499;49.486;11.104;2023-01-19T06:41:51;13.83;;;10.83;;
22665;SDS011;11499;49.486;11.104;2023-01-19T06:44:16;13.77;;;10.50;;
22665;SDS011;11499;49.486;11.104;2023-01-19T06:46:42;15.10;;;11.03;;
22665;SDS011;11499;49.486;11.104;2023-01-19T06:49:07;14.37;;;10.93;;
22665;SDS011;11499;49.486;11.104;2023-01-19T06:51:33;12.57;;;10.37;;
22665;SDS011;11499;49.486;11.104;2023-01-19T06:53:58;14.27;;;9.90;;
22665;SDS011;11499;49.486;11.104;2023-01-19T06:56:24;11.30;;;9.60;;
22665;SDS011;11499;49.486;11.104;2023-01-19T06:58:49;13.97;;;10.07;;
22665;SDS011;11499;49.486;11.104;2023-01-19T07:01:17;11.53;;;9.67;;
22665;SDS011;11499;49.486;11.104;2023-01-19T07:06:17;13.67;;;9.53;;
22665;SDS011;11499;49.486;11.104;2023-01-19T07:08:43;12.17;;;9.37;;
22665;SDS011;11499;49.486;11.104;2023-01-19T07:11:09;12.43;;;10.13;;
22665;SDS011;11499;49.486;11.104;2023-01-19T07:13:37;11.83;;;9.17;;
22665;SDS011;11499;49.486;11.104;2023-01-19T07:16:07;11.87;;;10.00;;
22665;SDS011;11499;49.486;11.104;2023-01-19T07:18:34;14.03;;;10.57;;
22665;SDS011;11499;49.486;11.104;2023-01-19T07:21:01;11.07;;;9.07;;
22665;SDS011;11499;49.486;11.104;2023-01-19T07:23:26;11.43;;;9.53;;
22665;SDS011;11499;49.486;11.104;2023-01-19T07:25:55;12.97;;;9.80;;
22665;SDS011;11499;49.486;11.104;2023-01-19T07:28:22;13.70;;;9.83;;
22665;SDS011;11499;49.486;11.104;2023-01-19T07:33:36;13.23;;;10.13;;
22665;SDS011;11499;49.486;11.104;2023-01-19T07:36:02;17.20;;;11.73;;
22665;SDS011;11499;49.486;11.104;2023-01-19T07:38:27;17.53;;;11.67;;
22665;SDS011;11499;49.486;11.104;2023-01-19T07:41:02;13.73;;;10.30;;
22665;SDS011;11499;49.486;11.104;2023-01-19T07:43:29;12.70;;;9.67;;
22665;SDS011;11499;49.486;11.104;2023-01-19T07:45:55;12.13;;;9.30;;
22665;SDS011;11499;49.486;11.104;2023-01-19T07:48:25;11.00;;;8.83;;
22665;SDS011;11499;49.486;11.104;2023-01-19T07:50:51;10.10;;;8.67;;
22665;SDS011;11499;49.486;11.104;2023-01-19T07:53:17;11.23;;;9.33;;
22665;SDS011;11499;49.486;11.104;2023-01-19T07:55:42;13.83;;;9.53;;
22665;SDS011;11499;49.486;11.104;2023-01-19T08:00:50;16.73;;;13.27;;
22665;SDS011;11499;49.486;11.104;2023-01-19T08:03:16;13.87;;;11.93;;
22665;SDS011;11499;49.486;11.104;2023-01-19T08:05:42;15.03;;;11.60;;
22665;SDS011;11499;49.486;11.104;2023-01-19T08:08:08;16.53;;;12.67;;
22665;SDS011;11499;49.486;11.104;2023-01-19T08:10:35;15.73;;;10.87;;
22665;SDS011;11499;49.486;11.104;2023-01-19T08:13:01;13.07;;;10.57;;
22665;SDS011;11499;49.486;11.104;2023-01-19T08:15:26;14.30;;;10.57;;
22665;SDS011;11499;49.486;11.104;2023-01-19T08:20:26;14.03;;;12.17;;
22665;SDS011;11499;49.486;11.104;2023-01-19T08:22:53;19.77;;;12.50;;
22665;SDS011;11499;49.486;11.104;2023-01-19T08:28:02;14.80;;;10.60;;
22665;SDS011;11499;49.486;11.104;2023-01-19T08:30:28;16.27;;;11.07;;
22665;SDS011;11499;49.486;11.104;2023-01-19T08:32:54;17.67;;;11.97;;
22665;SDS011;11499;49.486;11.104;2023-01-19T08:35:27;15.83;;;10.50;;
22665;SDS011;11499;49.486;11.104;2023-01-19T08:37:57;15.80;;;12.47;;
22665;SDS011;11499;49.486;11.104;2023-01-19T08:40:32;13.13;;;9.90;;
22665;SDS011;11499;49.486;11.104;2023-01-19T08:43:00;10.17;;;8.37;;
22665;SDS011;11499;49.486;11.104;2023-01-19T08:45:31;9.43;;;7.50;;
22665;SDS011;11499;49.486;11.104;2023-01-19T08:47:57;8.83;;;7.70;;
22665;SDS011;11499;49.486;11.104;2023-01-19T08:50:26;8.53;;;7.63;;
22665;SDS011;11499;49.486;11.104;2023-01-19T08:55:36;9.17;;;6.93;;
22665;SDS011;11499;49.486;11.104;2023-01-19T08:58:02;9.80;;;7.23;;
22665;SDS011;11499;49.486;11.104;2023-01-19T09:00:29;9.17;;;7.40;;
22665;SDS011;11499;49.486;11.104;2023-01-19T09:02:57;8.87;;;6.70;;
22665;SDS011;11499;49.486;11.104;2023-01-19T09:05:23;9.17;;;7.13;;
22665;SDS011;11499;49.486;11.104;2023-01-19T09:07:48;19.60;;;13.10;;
22665;SDS011;11499;49.486;11.104;2023-01-19T09:10:15;10.03;;;7.47;;
22665;SDS011;11499;49.486;11.104;2023-01-19T09:12:42;9.70;;;7.90;;
22665;SDS011;11499;49.486;11.104;2023-01-19T09:15:09;8.17;;;7.07;;
22665;SDS011;11499;49.486;11.104;2023-01-19T09:17:36;9.73;;;7.30;;
22665;SDS011;11499;49.486;11.104;2023-01-19T09:22:36;8.60;;;6.93;;
22665;SDS011;11499;49.486;11.104;2023-01-19T09:25:03;8.60;;;6.63;;
22665;SDS011;11499;49.486;11.104;2023-01-19T09:27:30;8.73;;;6.70;;
22665;SDS011;11499;49.486;11.104;2023-01-19T09:29:55;8.10;;;6.97;;
22665;SDS011;11499;49.486;11.104;2023-01-19T09:32:21;9.90;;;6.30;;
22665;SDS011;11499;49.486;11.104;2023-01-19T09:34:46;7.03;;;5.87;;
22665;SDS011;11499;49.486;11.104;2023-01-19T09:37:12;9.73;;;5.83;;
22665;SDS011;11499;49.486;11.104;2023-01-19T09:39:40;9.47;;;6.43;;
22665;SDS011;11499;49.486;11.104;2023-01-19T09:42:13;7.23;;;6.17;;
22665;SDS011;11499;49.486;11.104;2023-01-19T09:44:44;7.00;;;5.70;;
22665;SDS011;11499;49.486;11.104;2023-01-19T09:49:44;7.90;;;5.87;;
22665;SDS011;11499;49.486;11.104;2023-01-19T09:52:15;6.63;;;5.93;;
22665;SDS011;11499;49.486;11.104;2023-01-19T09:54:45;7.47;;;6.20;;
22665;SDS011;11499;49.486;11.104;2023-01-19T09:57:21;6.87;;;6.07;;
22665;SDS011;11499;49.486;11.104;2023-01-19T09:59:47;6.67;;;5.53;;
22665;SDS011;11499;49.486;11.104;2023-01-19T10:02:21;6.93;;;5.87;;
22665;SDS011;11499;49.486;11.104;2023-01-19T10:04:59;7.07;;;5.90;;
22665;SDS011;11499;49.486;11.104;2023-01-19T10:07:48;6.37;;;5.70;;
22665;SDS011;11499;49.486;11.104;2023-01-19T10:10:22;7.20;;;5.70;;
22665;SDS011;11499;49.486;11.104;2023-01-19T10:18:25;6.57;;;5.57;;
22665;SDS011;11499;49.486;11.104;2023-01-19T10:21:08;8.63;;;5.00;;
22665;SDS011;11499;49.486;11.104;2023-01-19T10:28:56;6.37;;;4.73;;
22665;SDS011;11499;49.486;11.104;2023-01-19T10:31:26;7.73;;;4.80;;
22665;SDS011;11499;49.486;11.104;2023-01-19T10:33:52;5.67;;;4.67;;
22665;SDS011;11499;49.486;11.104;2023-01-19T10:36:26;5.67;;;5.07;;
22665;SDS011;11499;49.486;11.104;2023-01-19T10:38:58;6.97;;;5.50;;
22665;SDS011;11499;49.486;11.104;2023-01-19T10:43:29;6.27;;;4.50;;
22665;SDS011;11499;49.486;11.104;2023-01-19T10:46:01;4.80;;;4.30;;
22665;SDS011;11499;49.486;11.104;2023-01-19T10:48:39;6.13;;;4.90;;
22665;SDS011;11499;49.486;11.104;2023-01-19T10:51:06;6.70;;;5.00;;
22665;SDS011;11499;49.486;11.104;2023-01-19T10:53:32;5.67;;;4.87;;
22665;SDS011;11499;49.486;11.104;2023-01-19T10:56:10;6.27;;;5.07;;
22665;SDS011;11499;49.486;11.104;2023-01-19T10:58:39;7.50;;;4.90;;
22665;SDS011;11499;49.486;11.104;2023-01-19T11:01:12;5.43;;;4.20;;
22665;SDS011;11499;49.486;11.104;2023-01-19T11:03:42;5.23;;;4.67;;
22665;SDS011;11499;49.486;11.104;2023-01-19T11:10:50;5.20;;;4.70;;
22665;SDS011;11499;49.486;11.104;2023-01-19T11:13:19;8.07;;;4.07;;
22665;SDS011;11499;49.486;11.104;2023-01-19T11:15:47;5.47;;;4.33;;
22665;SDS011;11499;49.486;11.104;2023-01-19T11:18:29;4.07;;;3.60;;
22665;SDS011;11499;49.486;11.104;2023-01-19T11:21:08;4.67;;;3.40;;
22665;SDS011;11499;49.486;11.104;2023-01-19T11:24:18;4.50;;;3.77;;
22665;SDS011;11499;49.486;11.104;2023-01-19T11:26:32;5.07;;;4.57;;
22665;SDS011;11499;49.486;11.104;2023-01-19T11:29:04;5.47;;;4.10;;
22665;SDS011;11499;49.486;11.104;2023-01-19T11:31:33;5.13;;;3.50;;
22665;SDS011;11499;49.486;11.104;2023-01-19T11:36:41;3.30;;;3.00;;
22665;SDS011;11499;49.486;11.104;2023-01-19T11:41:50;3.47;;;3.17;;
22665;SDS011;11499;49.486;11.104;2023-01-19T11:47:24;3.87;;;3.10;;
22665;SDS011;11499;49.486;11.104;2023-01-19T11:49:58;4.40;;;3.13;;
22665;SDS011;11499;49.486;11.104;2023-01-19T11:52:32;3.13;;;2.80;;
22665;SDS011;11499;49.486;11.104;2023-01-19T11:55:11;3.87;;;2.80;;
22665;SDS011;11499;49.486;11.104;2023-01-19T11:57:58;4.90;;;3.07;;
22665;SDS011;11499;49.486;11.104;2023-01-19T12:00:25;3.70;;;3.20;;
22665;SDS011;11499;49.486;11.104;2023-01-19T12:04:03;4.37;;;3.43;;
22665;SDS011;11499;49.486;11.104;2023-01-19T12:06:35;3.83;;;3.20;;
22665;SDS011;11499;49.486;11.104;2023-01-19T12:11:38;5.13;;;3.00;;
22665;SDS011;11499;49.486;11.104;2023-01-19T12:14:14;3.87;;;2.90;;
22665;SDS011;11499;49.486;11.104;2023-01-19T12:16:46;3.27;;;2.97;;
22665;SDS011;11499;49.486;11.104;2023-01-19T12:19:17;5.00;;;3.00;;
22665;SDS011;11499;49.486;11.104;2023-01-19T12:21:47;3.77;;;3.30;;
22665;SDS011;11499;49.486;11.104;2023-01-19T12:29:43;3.80;;;3.37;;
22665;SDS011;11499;49.486;11.104;2023-01-19T12:34:39;4.80;;;2.90;;
22665;SDS011;11499;49.486;11.104;2023-01-19T12:37:26;4.73;;;3.47;;
22665;SDS011;11499;49.486;11.104;2023-01-19T12:39:55;3.80;;;3.30;;
22665;SDS011;11499;49.486;11.104;2023-01-19T12:42:24;4.63;;;3.13;;
22665;SDS011;11499;49.486;11.104;2023-01-19T12:45:04;4.67;;;3.07;;
22665;SDS011;11499;49.486;11.104;2023-01-19T12:47:32;3.60;;;3.00;;
22665;SDS011;11499;49.486;11.104;2023-01-19T12:50:02;3.63;;;3.10;;
22665;SDS011;11499;49.486;11.104;2023-01-19T12:57:59;3.80;;;2.70;;
22665;SDS011;11499;49.486;11.104;2023-01-19T13:00:28;4.23;;;3.40;;
22665;SDS011;11499;49.486;11.104;2023-01-19T13:17:01;3.73;;;2.60;;
22665;SDS011;11499;49.486;11.104;2023-01-19T13:18:59;5.00;;;2.80;;
22665;SDS011;11499;49.486;11.104;2023-01-19T13:24:00;3.23;;;2.80;;
22665;SDS011;11499;49.486;11.104;2023-01-19T13:26:34;5.13;;;3.03;;
22665;SDS011;11499;49.486;11.104;2023-01-19T13:29:23;4.27;;;3.30;;
22665;SDS011;11499;49.486;11.104;2023-01-19T13:31:54;3.50;;;3.00;;
22665;SDS011;11499;49.486;11.104;2023-01-19T13:34:26;3.97;;;3.20;;
22665;SDS011;11499;49.486;11.104;2023-01-19T13:36:54;3.30;;;2.80;;
22665;SDS011;11499;49.486;11.104;2023-01-19T13:39:31;3.63;;;2.70;;
22665;SDS011;11499;49.486;11.104;2023-01-19T13:44:56;4.07;;;3.43;;
22665;SDS011;11499;49.486;11.104;2023-01-19T13:47:26;4.97;;;3.13;;
22665;SDS011;11499;49.486;11.104;2023-01-19T13:51:30;3.60;;;3.23;;
22665;SDS011;11499;49.486;11.104;2023-01-19T13:53:56;4.40;;;3.17;;
22665;SDS011;11499;49.486;11.104;2023-01-19T13:56:24;6.53;;;3.83;;
22665;SDS011;11499;49.486;11.104;2023-01-19T13:58:56;6.17;;;3.60;;
22665;SDS011;11499;49.486;11.104;2023-01-19T14:01:48;3.87;;;2.97;;
22665;SDS011;11499;49.486;11.104;2023-01-19T14:06:57;3.90;;;3.30;;
22665;SDS011;11499;49.486;11.104;2023-01-19T14:09:28;6.00;;;3.47;;
22665;SDS011;11499;49.486;11.104;2023-01-19T14:17:24;4.27;;;3.50;;
22665;SDS011;11499;49.486;11.104;2023-01-19T14:19:53;4.50;;;3.20;;
22665;SDS011;11499;49.486;11.104;2023-01-19T14:22:20;4.13;;;3.50;;
22665;SDS011;11499;49.486;11.104;2023-01-19T14:25:20;4.50;;;3.50;;
22665;SDS011;11499;49.486;11.104;2023-01-19T14:30:53;3.57;;;3.27;;
22665;SDS011;11499;49.486;11.104;2023-01-19T14:33:40;4.03;;;3.20;;
22665;SDS011;11499;49.486;11.104;2023-01-19T14:36:53;4.53;;;3.80;;
22665;SDS011;11499;49.486;11.104;2023-01-19T14:38:58;5.13;;;3.60;;
22665;SDS011;11499;49.486;11.104;2023-01-19T14:44:07;4.30;;;3.43;;
22665;SDS011;11499;49.486;11.104;2023-01-19T14:46:34;5.13;;;3.50;;
22665;SDS011;11499;49.486;11.104;2023-01-19T14:49:01;4.30;;;3.53;;
22665;SDS011;11499;49.486;11.104;2023-01-19T14:51:28;4.53;;;3.70;;
22665;SDS011;11499;49.486;11.104;2023-01-19T14:53:55;4.23;;;3.20;;
22665;SDS011;11499;49.486;11.104;2023-01-19T14:56:26;3.90;;;3.50;;
22665;SDS011;11499;49.486;11.104;2023-01-19T14:58:54;5.70;;;3.63;;
22665;SDS011;11499;49.486;11.104;2023-01-19T15:01:21;5.57;;;3.57;;
22665;SDS011;11499;49.486;11.104;2023-01-19T15:03:47;6.00;;;3.50;;
22665;SDS011;11499;49.486;11.104;2023-01-19T15:06:13;4.40;;;3.67;;
22665;SDS011;11499;49.486;11.104;2023-01-19T15:08:41;4.70;;;3.60;;
22665;SDS011;11499;49.486;11.104;2023-01-19T15:14:09;4.50;;;3.60;;
22665;SDS011;11499;49.486;11.104;2023-01-19T15:16:37;3.90;;;3.50;;
22665;SDS011;11499;49.486;11.104;2023-01-19T15:19:03;4.90;;;3.50;;
22665;SDS011;11499;49.486;11.104;2023-01-19T15:21:29;4.67;;;3.80;;
22665;SDS011;11499;49.486;11.104;2023-01-19T15:23:54;4.70;;;3.67;;
22665;SDS011;11499;49.486;11.104;2023-01-19T15:26:22;4.97;;;3.67;;
22665;SDS011;11499;49.486;11.104;2023-01-19T15:28:50;3.80;;;3.50;;
22665;SDS011;11499;49.486;11.104;2023-01-19T15:31:17;3.80;;;3.37;;
22665;SDS011;11499;49.486;11.104;2023-01-19T15:33:44;4.17;;;3.57;;
22665;SDS011;11499;49.486;11.104;2023-01-19T15:36:20;4.00;;;3.43;;
22665;SDS011;11499;49.486;11.104;2023-01-19T15:43:50;5.17;;;3.63;;
22665;SDS011;11499;49.486;11.104;2023-01-19T15:46:17;3.67;;;3.17;;
22665;SDS011;11499;49.486;11.104;2023-01-19T15:48:44;3.97;;;3.40;;
22665;SDS011;11499;49.486;11.104;2023-01-19T15:51:14;3.73;;;3.40;;
22665;SDS011;11499;49.486;11.104;2023-01-19T15:53:41;7.00;;;3.50;;
22665;SDS011;11499;49.486;11.104;2023-01-19T15:56:14;5.03;;;3.60;;
22665;SDS011;11499;49.486;11.104;2023-01-19T15:58:48;5.73;;;3.23;;
22665;SDS011;11499;49.486;11.104;2023-01-19T16:01:16;4.27;;;3.60;;
22665;SDS011;11499;49.486;11.104;2023-01-19T16:03:44;5.13;;;3.80;;
22665;SDS011;11499;49.486;11.104;2023-01-19T16:07:47;4.10;;;3.70;;
22665;SDS011;11499;49.486;11.104;2023-01-19T16:10:14;3.93;;;3.33;;
22665;SDS011;11499;49.486;11.104;2023-01-19T16:12:41;4.70;;;3.77;;
22665;SDS011;11499;49.486;11.104;2023-01-19T16:15:07;5.40;;;4.07;;
22665;SDS011;11499;49.486;11.104;2023-01-19T16:17:33;3.83;;;3.43;;
22665;SDS011;11499;49.486;11.104;2023-01-19T16:20:00;4.53;;;3.43;;
22665;SDS011;11499;49.486;11.104;2023-01-19T16:22:26;4.27;;;3.50;;
22665;SDS011;11499;49.486;11.104;2023-01-19T16:24:52;5.57;;;3.80;;
22665;SDS011;11499;49.486;11.104;2023-01-19T16:27:20;5.33;;;4.33;;
22665;SDS011;11499;49.486;11.104;2023-01-19T16:29:46;5.83;;;3.60;;
22665;SDS011;11499;49.486;11.104;2023-01-19T16:34:09;7.43;;;4.13;;
22665;SDS011;11499;49.486;11.104;2023-01-19T16:36:36;4.47;;;3.67;;
22665;SDS011;11499;49.486;11.104;2023-01-19T16:39:05;6.50;;;4.20;;
22665;SDS011;11499;49.486;11.104;2023-01-19T16:41:32;6.03;;;3.90;;
22665;SDS011;11499;49.486;11.104;2023-01-19T16:43:58;4.63;;;4.00;;
22665;SDS011;11499;49.486;11.104;2023-01-19T16:46:35;4.60;;;3.63;;
22665;SDS011;11499;49.486;11.104;2023-01-19T16:49:04;4.60;;;4.00;;
22665;SDS011;11499;49.486;11.104;2023-01-19T16:51:31;6.30;;;4.10;;
22665;SDS011;11499;49.486;11.104;2023-01-19T16:53:57;6.30;;;3.73;;
22665;SDS011;11499;49.486;11.104;2023-01-19T16:56:23;5.03;;;4.13;;
22665;SDS011;11499;49.486;11.104;2023-01-19T17:01:26;8.53;;;4.50;;
22665;SDS011;11499;49.486;11.104;2023-01-19T17:03:53;5.13;;;4.47;;
22665;SDS011;11499;49.486;11.104;2023-01-19T17:06:20;5.50;;;4.13;;
22665;SDS011;11499;49.486;11.104;2023-01-19T17:08:46;5.47;;;4.63;;
22665;SDS011;11499;49.486;11.104;2023-01-19T17:11:14;6.93;;;4.50;;
22665;SDS011;11499;49.486;11.104;2023-01-19T17:13:54;5.70;;;4.63;;
22665;SDS011;11499;49.486;11.104;2023-01-19T17:16:23;4.90;;;4.17;;